الصفحة الرئيسية
METAR-TAF:

METAR-TAF

مطار :

Nosy Be, مدغشقر

دائرة عرض: 13-19S, خط طول: 048-19E, ارتفاع: 10 متر

مراقبة الطقس الحالي

تاريخ ووقت الإصدار 12ساعات و 26 دقيقة قبل الساعة 14:00UTC
ريح 6 عقدة من الغرب
درجة الحرارة 29°درجة مئوية
ضغط 1009 hPa
الرؤية 10 كم أو أكثر
غيوم متفرقة على ارتفاع 2000 قدم

METAR: FMNN 301400Z 26006KT 9999 SCT020 29/// Q1009

زمن: 05:26 (02:26 UTC)

توقعات

تاريخ ووقت الإصدار 3ساعات و 26 دقيقة قبل الساعة 23:00UTC
التوقعات صالحة من01 الساعة 00 UTC إلى 01 الساعة 24 UTC
ريح 5 عقدةمن اتجاهات متغيرة
الرؤية 10 كم أو أكثر
غيوم متفرقة على ارتفاع 2000 قدم
غيوم متفرقة على ارتفاع 4000 قدم
نظرية الاحتمالات 40% :
مؤقت
من 01 الساعة 00 UTC إلى 01 الساعة 06 UTC
الرؤية: 4500 متر
زخات من المطر

TAF: FMNN 302300Z 0100/0124 VRB05KT 9999 SCT020 SCT040 PROB40 TEMPO 0100/0106 4500 SHRA

أرصاد الطقس والتوقعات من أكثر من 4000 مطار (تقارير الطقس للمطار METAR والتنبؤ بالطقس بالمطارTAF).

المحطات المتاحة هي النقط الصفراء والحمراء على الخريطة.

حرك المؤشر فوق النقطة لمعرفة اسم المحطة.

ثم انقر لمعرفة أرصاد وتوقعات الطقس.

لتغيير الخارطة: اضغط على الأزرار الخضراء مع رمز الصليب الأسود للتكبير. على الزر الأخضر مع شرطة للتصغير، أو على الأسهم الخضراء للخرائط المجاورة.


METAR-TAF: